Aérodrome :
LOGIN :

S'inscrire | Disclaimer

   EN    FR    IT 

 










Légende :    VFR   VFR Marginal   IFR   IFR Intensif   IFR Très Intensif
Visi : 
Plafond : 
>= 8 km
>= 3000ft
5 à 8 km
1000 à 3000 ft
1500m à 5 km
500 à 1000 ft
800 à 1500m
200 à 500 ft
< 800m
< 200 ft
Symboles :   Orages  Brouillard  Fortes neiges  Fortes précipitations  Vent > 20 kt
SIGMETs :   Divers  Orages  Givrage  Turbulence  Onde Orograph.  Cendres Volcan.







- Altitude de l'aérodrome : 1966 ft
- Code IATA : SGE


EDGS - Siegerland

DERNIER METAR :
  • 191050Z 26011KT 9999 SCT006 BKN009 05/04 Q1018

METARs EXPIRÉS :
  • 191020Z 27012KT 9999 SCT003 BKN007 04/04 Q1018
  • 190950Z 27012KT 4000 BCFG BR FEW002 SCT004 BKN007 04/04 Q1018
  • 190920Z 27011KT 5000 BCFG BR SCT002 BKN004 04/04 Q1018 RERA
  • 190850Z 27011KT 1200 R31/1500N -RADZ BCFG SCT001 OVC002 04/04 Q1017
  • 190820Z 26008KT 1700 -RADZ BCFG SCT001 OVC003 04/04 Q1017

TAF AMD TAF EDGS
Valide du 19 à 09h jusqu'au 19 à 18h UTC


190933Z 1909/1918 27010KT 4000 -RA BR BKN004
BECMG 1909/1912 9999 BKN012
BECMG 1912/1914 SCT012
Pas de NOTAMs connus pour ce terrain.



MET'MAP, la Météo Aéronautique d'un coup d'oeil ! - Copyright ORBIFLY Décembre 2007 - Disclaimer

ORBIFLY MET'MAP TEAM :

Programmation & Développement : Alexandra Zaïnal
Conception & Développement : Baudouin d'Aumeries
Co-Programmation & Développement : Marc-Olivier Méhu
Soutien technique & logistique : Manuel Goepfert

Contact : metmap@orbifly.com




SOURCES & CREDITS :

   NOAA